sensor_id;sensor_type;location;lat;lon;timestamp;pressure;altitude;pressure_sealevel;temperature;humidity
61906;BME280;47863;55.766;37.672;2024-03-22T00:00:20;100291.25;;;1.55;39.81
61906;BME280;47863;55.766;37.672;2024-03-22T00:02:46;100309.94;;;1.67;39.64
61906;BME280;47863;55.766;37.672;2024-03-22T00:05:11;100310.97;;;1.64;39.35
61906;BME280;47863;55.766;37.672;2024-03-22T00:07:37;100249.72;;;1.29;39.42
61906;BME280;47863;55.766;37.672;2024-03-22T00:10:05;100308.34;;;1.64;39.23
61906;BME280;47863;55.766;37.672;2024-03-22T00:12:31;100305.94;;;1.59;39.21
61906;BME280;47863;55.766;37.672;2024-03-22T00:14:56;100311.16;;;1.61;39.53
61906;BME280;47863;55.766;37.672;2024-03-22T00:17:22;100307.75;;;1.59;39.33
61906;BME280;47863;55.766;37.672;2024-03-22T00:19:48;100294.06;;;1.52;39.50
61906;BME280;47863;55.766;37.672;2024-03-22T00:22:13;100303.59;;;1.55;39.30
61906;BME280;47863;55.766;37.672;2024-03-22T00:24:40;100296.81;;;1.51;39.19
61906;BME280;47863;55.766;37.672;2024-03-22T00:27:05;100293.31;;;1.50;39.21
61906;BME280;47863;55.766;37.672;2024-03-22T00:29:31;100284.91;;;1.44;39.36
61906;BME280;47863;55.766;37.672;2024-03-22T00:31:56;100291.69;;;1.48;39.09
61906;BME280;47863;55.766;37.672;2024-03-22T00:34:22;100275.53;;;1.38;39.72
61906;BME280;47863;55.766;37.672;2024-03-22T00:36:48;100273.19;;;1.33;39.87
61906;BME280;47863;55.766;37.672;2024-03-22T00:39:13;100282.06;;;1.32;39.94
61906;BME280;47863;55.766;37.672;2024-03-22T00:41:39;100297.41;;;1.40;40.18
61906;BME280;47863;55.766;37.672;2024-03-22T00:44:04;100297.53;;;1.38;40.45
61906;BME280;47863;55.766;37.672;2024-03-22T00:46:30;100294.28;;;1.33;40.15
61906;BME280;47863;55.766;37.672;2024-03-22T00:48:56;100274.06;;;1.18;40.13
61906;BME280;47863;55.766;37.672;2024-03-22T00:51:25;100273.50;;;1.13;40.14
61906;BME280;47863;55.766;37.672;2024-03-22T00:53:51;100301.63;;;1.28;40.51
61906;BME280;47863;55.766;37.672;2024-03-22T00:56:16;100299.84;;;1.29;41.06
61906;BME280;47863;55.766;37.672;2024-03-22T00:58:42;100282.88;;;1.18;40.54
61906;BME280;47863;55.766;37.672;2024-03-22T01:01:07;100284.81;;;1.15;40.20
61906;BME280;47863;55.766;37.672;2024-03-22T01:03:33;100260.09;;;1.02;40.18
61906;BME280;47863;55.766;37.672;2024-03-22T01:05:59;100287.03;;;1.23;39.90
61906;BME280;47863;55.766;37.672;2024-03-22T01:08:24;100286.16;;;1.22;40.11
61906;BME280;47863;55.766;37.672;2024-03-22T01:10:50;100296.06;;;1.18;39.97
61906;BME280;47863;55.766;37.672;2024-03-22T01:13:16;100252.69;;;0.92;40.06
61906;BME280;47863;55.766;37.672;2024-03-22T01:15:42;100279.16;;;1.07;40.08
61906;BME280;47863;55.766;37.672;2024-03-22T01:18:08;100284.22;;;1.10;40.24
61906;BME280;47863;55.766;37.672;2024-03-22T01:20:34;100284.31;;;1.08;40.01
61906;BME280;47863;55.766;37.672;2024-03-22T01:22:59;100283.63;;;1.05;40.11
61906;BME280;47863;55.766;37.672;2024-03-22T01:25:26;100266.84;;;0.91;39.93
61906;BME280;47863;55.766;37.672;2024-03-22T01:27:52;100280.44;;;0.99;40.69
61906;BME280;47863;55.766;37.672;2024-03-22T01:30:18;100271.84;;;0.96;40.62
61906;BME280;47863;55.766;37.672;2024-03-22T01:32:43;100264.19;;;0.91;41.55
61906;BME280;47863;55.766;37.672;2024-03-22T01:35:09;100265.88;;;0.92;41.24
61906;BME280;47863;55.766;37.672;2024-03-22T01:37:34;100262.47;;;0.90;41.49
61906;BME280;47863;55.766;37.672;2024-03-22T01:40:00;100259.06;;;0.88;41.13
61906;BME280;47863;55.766;37.672;2024-03-22T01:42:26;100240.91;;;0.68;40.79
61906;BME280;47863;55.766;37.672;2024-03-22T01:44:52;100231.97;;;0.70;40.79
61906;BME280;47863;55.766;37.672;2024-03-22T01:47:18;100257.63;;;0.83;40.96
61906;BME280;47863;55.766;37.672;2024-03-22T01:49:44;100253.31;;;0.82;40.67
61906;BME280;47863;55.766;37.672;2024-03-22T01:52:09;100197.31;;;0.46;40.99
61906;BME280;47863;55.766;37.672;2024-03-22T01:54:35;100247.44;;;0.76;40.79
61906;BME280;47863;55.766;37.672;2024-03-22T01:57:01;100252.16;;;0.71;40.59
61906;BME280;47863;55.766;37.672;2024-03-22T01:59:28;100246.28;;;0.66;40.67
61906;BME280;47863;55.766;37.672;2024-03-22T02:01:53;100244.13;;;0.57;40.55
61906;BME280;47863;55.766;37.672;2024-03-22T02:04:19;100245.94;;;0.56;40.54
61906;BME280;47863;55.766;37.672;2024-03-22T02:06:44;100249.41;;;0.57;40.45
61906;BME280;47863;55.766;37.672;2024-03-22T02:09:10;100251.22;;;0.56;40.74
61906;BME280;47863;55.766;37.672;2024-03-22T02:11:36;100239.06;;;0.54;40.77
61906;BME280;47863;55.766;37.672;2024-03-22T02:14:03;100244.41;;;0.52;41.01
61906;BME280;47863;55.766;37.672;2024-03-22T02:16:29;100217.09;;;0.37;40.94
61906;BME280;47863;55.766;37.672;2024-03-22T02:18:55;100237.63;;;0.48;40.79
61906;BME280;47863;55.766;37.672;2024-03-22T02:21:21;100236.94;;;0.45;41.28
61906;BME280;47863;55.766;37.672;2024-03-22T02:23:46;100224.25;;;0.35;41.15
61906;BME280;47863;55.766;37.672;2024-03-22T02:26:12;100209.41;;;0.18;41.03
61906;BME280;47863;55.766;37.672;2024-03-22T02:28:38;100231.66;;;0.29;41.18
61906;BME280;47863;55.766;37.672;2024-03-22T02:31:03;100225.78;;;0.24;41.40
61906;BME280;47863;55.766;37.672;2024-03-22T02:33:30;100187.63;;;-0.01;41.09
61906;BME280;47863;55.766;37.672;2024-03-22T02:35:56;100203.28;;;0.02;41.14
61906;BME280;47863;55.766;37.672;2024-03-22T02:38:22;100225.69;;;0.09;40.98
61906;BME280;47863;55.766;37.672;2024-03-22T02:40:50;100217.88;;;0.08;41.12
61906;BME280;47863;55.766;37.672;2024-03-22T02:43:15;100221.47;;;0.07;40.78
61906;BME280;47863;55.766;37.672;2024-03-22T02:45:44;100226.03;;;0.03;40.64
61906;BME280;47863;55.766;37.672;2024-03-22T02:48:11;100227.00;;;0.02;40.95
61906;BME280;47863;55.766;37.672;2024-03-22T02:50:37;100219.09;;;0.02;41.00
61906;BME280;47863;55.766;37.672;2024-03-22T02:53:03;100219.16;;;0.01;40.91
61906;BME280;47863;55.766;37.672;2024-03-22T02:55:29;100193.38;;;-0.10;40.72
61906;BME280;47863;55.766;37.672;2024-03-22T02:57:56;100161.19;;;-0.31;40.95
61906;BME280;47863;55.766;37.672;2024-03-22T03:00:22;100203.59;;;-0.04;40.84
61906;BME280;47863;55.766;37.672;2024-03-22T03:02:49;100194.34;;;-0.11;41.11
61906;BME280;47863;55.766;37.672;2024-03-22T03:05:14;100202.81;;;-0.06;40.89
61906;BME280;47863;55.766;37.672;2024-03-22T03:07:40;100209.97;;;-0.08;40.87
61906;BME280;47863;55.766;37.672;2024-03-22T03:10:06;100197.06;;;-0.13;41.00
61906;BME280;47863;55.766;37.672;2024-03-22T03:12:32;100179.44;;;-0.28;40.75
61906;BME280;47863;55.766;37.672;2024-03-22T03:14:57;100174.44;;;-0.33;40.75
61906;BME280;47863;55.766;37.672;2024-03-22T03:17:23;100196.97;;;-0.11;41.02
61906;BME280;47863;55.766;37.672;2024-03-22T03:19:49;100198.66;;;-0.10;40.99
61906;BME280;47863;55.766;37.672;2024-03-22T03:22:14;100207.25;;;-0.07;41.15
61906;BME280;47863;55.766;37.672;2024-03-22T03:24:40;100159.06;;;-0.25;41.59
61906;BME280;47863;55.766;37.672;2024-03-22T03:27:06;100189.56;;;-0.05;41.56
61906;BME280;47863;55.766;37.672;2024-03-22T03:29:32;100166.72;;;-0.20;41.57
61906;BME280;47863;55.766;37.672;2024-03-22T03:31:58;100186.94;;;-0.05;41.58
61906;BME280;47863;55.766;37.672;2024-03-22T03:34:23;100165.59;;;-0.16;41.74
61906;BME280;47863;55.766;37.672;2024-03-22T03:36:49;100127.47;;;-0.41;41.94
61906;BME280;47863;55.766;37.672;2024-03-22T03:39:14;100172.66;;;-0.16;41.83
61906;BME280;47863;55.766;37.672;2024-03-22T03:41:40;100170.97;;;-0.17;41.63
61906;BME280;47863;55.766;37.672;2024-03-22T03:44:05;100178.47;;;-0.10;41.83
61906;BME280;47863;55.766;37.672;2024-03-22T03:46:31;100174.28;;;-0.14;41.60
61906;BME280;47863;55.766;37.672;2024-03-22T03:48:56;100180.06;;;-0.07;41.66
61906;BME280;47863;55.766;37.672;2024-03-22T03:51:22;100152.63;;;-0.19;41.65
61906;BME280;47863;55.766;37.672;2024-03-22T03:53:47;100162.47;;;-0.07;41.71
61906;BME280;47863;55.766;37.672;2024-03-22T03:56:13;100151.19;;;-0.09;41.34
61906;BME280;47863;55.766;37.672;2024-03-22T03:58:39;100180.56;;;0.15;41.66
61906;BME280;47863;55.766;37.672;2024-03-22T04:01:06;100173.00;;;0.25;41.79
61906;BME280;47863;55.766;37.672;2024-03-22T04:03:31;100145.66;;;0.12;41.73
61906;BME280;47863;55.766;37.672;2024-03-22T04:05:57;100173.88;;;0.42;41.73
61906;BME280;47863;55.766;37.672;2024-03-22T04:08:27;100160.66;;;0.57;41.59
61906;BME280;47863;55.766;37.672;2024-03-22T04:10:53;100167.31;;;0.79;41.41
61906;BME280;47863;55.766;37.672;2024-03-22T04:13:21;100163.28;;;0.88;42.65
61906;BME280;47863;55.766;37.672;2024-03-22T04:15:47;100143.81;;;1.05;41.78
61906;BME280;47863;55.766;37.672;2024-03-22T04:18:12;100172.53;;;1.68;41.36
61906;BME280;47863;55.766;37.672;2024-03-22T04:20:38;100161.13;;;2.24;41.37
61906;BME280;47863;55.766;37.672;2024-03-22T04:23:03;100143.06;;;2.57;41.06
61906;BME280;47863;55.766;37.672;2024-03-22T04:25:29;100153.47;;;2.73;41.11
61906;BME280;47863;55.766;37.672;2024-03-22T04:27:54;100147.19;;;2.74;41.18
61906;BME280;47863;55.766;37.672;2024-03-22T04:30:20;100137.91;;;2.82;41.26
61906;BME280;47863;55.766;37.672;2024-03-22T04:32:46;100149.59;;;3.17;42.07
61906;BME280;47863;55.766;37.672;2024-03-22T04:35:15;100149.06;;;3.51;41.68
61906;BME280;47863;55.766;37.672;2024-03-22T04:37:41;100169.25;;;3.90;41.64
61906;BME280;47863;55.766;37.672;2024-03-22T04:40:07;100160.03;;;4.33;41.81
61906;BME280;47863;55.766;37.672;2024-03-22T04:42:35;100169.66;;;4.82;41.71
61906;BME280;47863;55.766;37.672;2024-03-22T04:45:01;100163.50;;;5.28;41.02
61906;BME280;47863;55.766;37.672;2024-03-22T04:47:26;100157.88;;;5.67;40.75
61906;BME280;47863;55.766;37.672;2024-03-22T04:49:52;100160.41;;;6.02;40.55
61906;BME280;47863;55.766;37.672;2024-03-22T04:52:17;100160.72;;;6.43;40.77
61906;BME280;47863;55.766;37.672;2024-03-22T04:54:43;100162.94;;;6.91;40.77
61906;BME280;47863;55.766;37.672;2024-03-22T04:57:09;100163.38;;;7.38;40.32
61906;BME280;47863;55.766;37.672;2024-03-22T04:59:34;100160.84;;;7.88;40.25
61906;BME280;47863;55.766;37.672;2024-03-22T05:02:03;100158.66;;;8.13;40.13
61906;BME280;47863;55.766;37.672;2024-03-22T05:04:28;100153.50;;;8.31;40.37
61906;BME280;47863;55.766;37.672;2024-03-22T05:06:54;100153.78;;;8.28;40.67
61906;BME280;47863;55.766;37.672;2024-03-22T05:09:19;100127.31;;;8.05;41.05
61906;BME280;47863;55.766;37.672;2024-03-22T05:11:45;100147.59;;;8.18;40.98
61906;BME280;47863;55.766;37.672;2024-03-22T05:14:15;100130.84;;;8.06;40.58
61906;BME280;47863;55.766;37.672;2024-03-22T05:16:41;100145.00;;;7.97;40.91
61906;BME280;47863;55.766;37.672;2024-03-22T05:19:06;100150.34;;;7.97;41.07
61906;BME280;47863;55.766;37.672;2024-03-22T05:21:32;100153.63;;;8.10;40.72
61906;BME280;47863;55.766;37.672;2024-03-22T05:23:57;100140.72;;;8.34;40.46
61906;BME280;47863;55.766;37.672;2024-03-22T05:26:23;100141.22;;;8.59;40.27
61906;BME280;47863;55.766;37.672;2024-03-22T05:28:49;100082.34;;;8.41;40.10
61906;BME280;47863;55.766;37.672;2024-03-22T05:31:14;100091.44;;;8.87;39.79
61906;BME280;47863;55.766;37.672;2024-03-22T05:33:40;100132.22;;;9.56;39.16
61906;BME280;47863;55.766;37.672;2024-03-22T05:36:06;100138.63;;;10.01;38.76
61906;BME280;47863;55.766;37.672;2024-03-22T05:38:31;100136.53;;;10.22;38.51
61906;BME280;47863;55.766;37.672;2024-03-22T05:40:57;100133.69;;;10.51;38.49
61906;BME280;47863;55.766;37.672;2024-03-22T05:43:22;100133.63;;;10.79;38.04
61906;BME280;47863;55.766;37.672;2024-03-22T05:45:48;100133.75;;;10.96;38.06
61906;BME280;47863;55.766;37.672;2024-03-22T05:48:14;100115.38;;;11.01;37.49
61906;BME280;47863;55.766;37.672;2024-03-22T05:50:40;100119.75;;;11.28;37.28
61906;BME280;47863;55.766;37.672;2024-03-22T05:53:06;100057.06;;;11.29;37.09
61906;BME280;47863;55.766;37.672;2024-03-22T05:55:32;100112.59;;;11.97;36.74
61906;BME280;47863;55.766;37.672;2024-03-22T05:57:57;100110.19;;;12.45;36.41
61906;BME280;47863;55.766;37.672;2024-03-22T06:00:23;100115.09;;;12.82;36.30
61906;BME280;47863;55.766;37.672;2024-03-22T06:02:49;100122.50;;;13.13;35.91
61906;BME280;47863;55.766;37.672;2024-03-22T06:05:14;100109.06;;;13.29;36.28
61906;BME280;47863;55.766;37.672;2024-03-22T06:07:40;100082.16;;;13.29;36.12
61906;BME280;47863;55.766;37.672;2024-03-22T06:10:08;100113.03;;;13.50;36.04
61906;BME280;47863;55.766;37.672;2024-03-22T06:12:35;100097.44;;;13.37;35.96
61906;BME280;47863;55.766;37.672;2024-03-22T06:15:01;100083.00;;;13.05;36.39
61906;BME280;47863;55.766;37.672;2024-03-22T06:17:32;100105.38;;;12.89;36.68
61906;BME280;47863;55.766;37.672;2024-03-22T06:19:58;100102.34;;;12.68;36.63
61906;BME280;47863;55.766;37.672;2024-03-22T06:22:25;100097.94;;;12.50;36.57
61906;BME280;47863;55.766;37.672;2024-03-22T06:24:50;100086.53;;;12.40;36.78
61906;BME280;47863;55.766;37.672;2024-03-22T06:27:16;100076.09;;;12.29;36.43
61906;BME280;47863;55.766;37.672;2024-03-22T06:29:41;100075.28;;;12.45;36.23
61906;BME280;47863;55.766;37.672;2024-03-22T06:32:07;100077.47;;;12.82;35.59
61906;BME280;47863;55.766;37.672;2024-03-22T06:34:32;100080.59;;;13.43;34.85
61906;BME280;47863;55.766;37.672;2024-03-22T06:36:58;100077.44;;;14.11;33.98
61906;BME280;47863;55.766;37.672;2024-03-22T06:39:24;100089.66;;;14.76;33.67
61906;BME280;47863;55.766;37.672;2024-03-22T06:41:49;100056.28;;;15.15;33.17
61906;BME280;47863;55.766;37.672;2024-03-22T06:44:15;100018.88;;;15.56;32.63
61906;BME280;47863;55.766;37.672;2024-03-22T06:46:40;100068.44;;;16.36;32.38
61906;BME280;47863;55.766;37.672;2024-03-22T06:49:06;100071.66;;;16.68;32.41
61906;BME280;47863;55.766;37.672;2024-03-22T06:51:32;100078.56;;;17.20;31.86
61906;BME280;47863;55.766;37.672;2024-03-22T06:53:58;100081.53;;;17.60;31.69
61906;BME280;47863;55.766;37.672;2024-03-22T06:56:23;100020.66;;;17.50;31.38
61906;BME280;47863;55.766;37.672;2024-03-22T06:58:49;100045.09;;;18.24;30.97
61906;BME280;47863;55.766;37.672;2024-03-22T07:01:14;100071.47;;;18.77;30.72
61906;BME280;47863;55.766;37.672;2024-03-22T07:03:41;100071.53;;;19.04;30.11
61906;BME280;47863;55.766;37.672;2024-03-22T07:06:10;100071.47;;;19.31;29.46
61906;BME280;47863;55.766;37.672;2024-03-22T07:08:36;100056.50;;;19.93;29.21
61906;BME280;47863;55.766;37.672;2024-03-22T07:11:05;100073.63;;;20.71;28.77
61906;BME280;47863;55.766;37.672;2024-03-22T07:13:31;100068.56;;;21.25;27.83
61906;BME280;47863;55.766;37.672;2024-03-22T07:15:57;100059.91;;;21.90;27.93
61906;BME280;47863;55.766;37.672;2024-03-22T07:18:23;100064.59;;;22.20;26.25
61906;BME280;47863;55.766;37.672;2024-03-22T07:20:48;100067.75;;;22.77;26.35
61906;BME280;47863;55.766;37.672;2024-03-22T07:23:14;100027.25;;;22.97;25.55
61906;BME280;47863;55.766;37.672;2024-03-22T07:25:40;100063.72;;;23.86;25.37
61906;BME280;47863;55.766;37.672;2024-03-22T07:28:08;100047.94;;;24.05;24.04
61906;BME280;47863;55.766;37.672;2024-03-22T07:30:33;100024.78;;;24.70;24.29
61906;BME280;47863;55.766;37.672;2024-03-22T07:33:00;100061.44;;;25.53;23.29
61906;BME280;47863;55.766;37.672;2024-03-22T07:35:26;100051.25;;;26.42;23.43
61906;BME280;47863;55.766;37.672;2024-03-22T07:37:53;100053.38;;;26.62;23.34
61906;BME280;47863;55.766;37.672;2024-03-22T07:40:19;100055.28;;;26.35;23.31
61906;BME280;47863;55.766;37.672;2024-03-22T07:42:47;100045.53;;;26.49;22.52
61906;BME280;47863;55.766;37.672;2024-03-22T07:45:12;100043.47;;;26.94;22.44
61906;BME280;47863;55.766;37.672;2024-03-22T07:47:38;100046.75;;;27.28;22.40
61906;BME280;47863;55.766;37.672;2024-03-22T07:50:06;100035.66;;;27.70;21.65
61906;BME280;47863;55.766;37.672;2024-03-22T07:52:31;99978.25;;;27.89;20.63
61906;BME280;47863;55.766;37.672;2024-03-22T07:54:57;99986.06;;;28.44;20.35
61906;BME280;47863;55.766;37.672;2024-03-22T07:57:23;99986.63;;;28.56;19.85
61906;BME280;47863;55.766;37.672;2024-03-22T07:59:49;100005.88;;;29.07;20.06
61906;BME280;47863;55.766;37.672;2024-03-22T08:02:15;100002.56;;;29.16;19.29
61906;BME280;47863;55.766;37.672;2024-03-22T08:04:40;100002.03;;;29.19;19.14
61906;BME280;47863;55.766;37.672;2024-03-22T08:07:06;100021.16;;;29.65;18.45
61906;BME280;47863;55.766;37.672;2024-03-22T08:09:31;100001.13;;;30.04;18.45
61906;BME280;47863;55.766;37.672;2024-03-22T08:11:57;99978.88;;;30.24;18.63
61906;BME280;47863;55.766;37.672;2024-03-22T08:14:23;99944.47;;;30.07;18.27
61906;BME280;47863;55.766;37.672;2024-03-22T08:16:48;99968.28;;;29.97;18.01
61906;BME280;47863;55.766;37.672;2024-03-22T08:19:14;99987.41;;;30.33;17.85
61906;BME280;47863;55.766;37.672;2024-03-22T08:21:39;99966.56;;;30.12;17.62
61906;BME280;47863;55.766;37.672;2024-03-22T08:24:05;99979.66;;;29.25;16.75
61906;BME280;47863;55.766;37.672;2024-03-22T08:26:31;99977.19;;;29.14;17.19
61906;BME280;47863;55.766;37.672;2024-03-22T08:28:56;99973.94;;;28.91;16.97
61906;BME280;47863;55.766;37.672;2024-03-22T08:31:22;99967.00;;;29.09;16.71
61906;BME280;47863;55.766;37.672;2024-03-22T08:33:51;99959.03;;;28.92;15.96
61906;BME280;47863;55.766;37.672;2024-03-22T08:36:17;99958.50;;;28.59;16.30
61906;BME280;47863;55.766;37.672;2024-03-22T08:38:43;99912.50;;;28.44;16.36
61906;BME280;47863;55.766;37.672;2024-03-22T08:41:08;99947.75;;;28.73;16.31
61906;BME280;47863;55.766;37.672;2024-03-22T08:43:34;99943.88;;;28.90;16.16
61906;BME280;47863;55.766;37.672;2024-03-22T08:46:00;99870.03;;;28.45;15.92
61906;BME280;47863;55.766;37.672;2024-03-22T08:48:25;99930.94;;;28.59;16.16
61906;BME280;47863;55.766;37.672;2024-03-22T08:50:51;99944.72;;;28.75;15.88
61906;BME280;47863;55.766;37.672;2024-03-22T08:53:16;99930.59;;;29.12;15.75
61906;BME280;47863;55.766;37.672;2024-03-22T08:55:46;99947.84;;;29.49;15.40
61906;BME280;47863;55.766;37.672;2024-03-22T08:58:14;99934.59;;;29.45;15.42
61906;BME280;47863;55.766;37.672;2024-03-22T09:00:41;99939.59;;;29.38;15.23
61906;BME280;47863;55.766;37.672;2024-03-22T09:03:07;99939.31;;;29.40;14.72
61906;BME280;47863;55.766;37.672;2024-03-22T09:05:32;99925.34;;;29.16;15.02
61906;BME280;47863;55.766;37.672;2024-03-22T09:07:59;99931.44;;;28.87;14.96
61906;BME280;47863;55.766;37.672;2024-03-22T09:10:25;99910.50;;;28.91;14.66
61906;BME280;47863;55.766;37.672;2024-03-22T09:12:51;99870.66;;;29.33;14.80
61906;BME280;47863;55.766;37.672;2024-03-22T09:15:17;99898.78;;;29.85;14.52
61906;BME280;47863;55.766;37.672;2024-03-22T09:17:43;99894.25;;;30.39;14.07
61906;BME280;47863;55.766;37.672;2024-03-22T09:20:09;99915.44;;;30.14;13.99
61906;BME280;47863;55.766;37.672;2024-03-22T09:22:35;99910.78;;;29.60;14.85
61906;BME280;47863;55.766;37.672;2024-03-22T09:25:00;99910.47;;;29.01;14.20
61906;BME280;47863;55.766;37.672;2024-03-22T09:27:26;99892.06;;;28.76;14.23
61906;BME280;47863;55.766;37.672;2024-03-22T09:29:51;99903.38;;;28.80;14.55
61906;BME280;47863;55.766;37.672;2024-03-22T09:32:18;99894.31;;;28.64;14.45
61906;BME280;47863;55.766;37.672;2024-03-22T09:34:43;99896.47;;;27.85;14.87
61906;BME280;47863;55.766;37.672;2024-03-22T09:37:09;99904.28;;;27.25;14.89
61906;BME280;47863;55.766;37.672;2024-03-22T09:39:35;99894.59;;;26.64;14.87
61906;BME280;47863;55.766;37.672;2024-03-22T09:42:05;99904.13;;;26.57;14.41
61906;BME280;47863;55.766;37.672;2024-03-22T09:44:32;99902.63;;;26.39;14.27
61906;BME280;47863;55.766;37.672;2024-03-22T09:46:59;99899.03;;;26.76;14.18
61906;BME280;47863;55.766;37.672;2024-03-22T09:49:26;99871.50;;;26.60;14.16
61906;BME280;47863;55.766;37.672;2024-03-22T09:51:52;99900.44;;;27.31;14.17
61906;BME280;47863;55.766;37.672;2024-03-22T09:54:18;99856.59;;;27.04;13.68
61906;BME280;47863;55.766;37.672;2024-03-22T09:56:44;99885.91;;;27.36;13.13
61906;BME280;47863;55.766;37.672;2024-03-22T09:59:12;99883.53;;;27.07;13.44
61906;BME280;47863;55.766;37.672;2024-03-22T10:01:39;99890.06;;;27.43;13.30
61906;BME280;47863;55.766;37.672;2024-03-22T10:04:05;99854.31;;;27.64;13.22
61906;BME280;47863;55.766;37.672;2024-03-22T10:06:31;99884.13;;;28.54;13.15
61906;BME280;47863;55.766;37.672;2024-03-22T10:09:00;99877.66;;;29.05;12.89
61906;BME280;47863;55.766;37.672;2024-03-22T10:11:29;99868.03;;;28.87;12.02
61906;BME280;47863;55.766;37.672;2024-03-22T10:13:55;99867.31;;;28.56;12.51
61906;BME280;47863;55.766;37.672;2024-03-22T10:16:21;99889.59;;;28.49;12.47
61906;BME280;47863;55.766;37.672;2024-03-22T10:18:47;99861.50;;;28.47;12.38
61906;BME280;47863;55.766;37.672;2024-03-22T10:21:17;99874.47;;;28.46;12.29
61906;BME280;47863;55.766;37.672;2024-03-22T10:23:44;99865.63;;;28.70;12.52
61906;BME280;47863;55.766;37.672;2024-03-22T10:26:10;99846.25;;;28.91;12.32
61906;BME280;47863;55.766;37.672;2024-03-22T10:28:36;99842.03;;;29.08;12.32
61906;BME280;47863;55.766;37.672;2024-03-22T10:31:01;99839.09;;;28.90;11.81
61906;BME280;47863;55.766;37.672;2024-03-22T10:33:28;99817.22;;;28.28;11.69
61906;BME280;47863;55.766;37.672;2024-03-22T10:35:54;99808.13;;;27.92;12.08
61906;BME280;47863;55.766;37.672;2024-03-22T10:38:21;99815.56;;;27.81;11.90
61906;BME280;47863;55.766;37.672;2024-03-22T10:40:48;99831.81;;;27.87;11.88
61906;BME280;47863;55.766;37.672;2024-03-22T10:43:14;99823.44;;;27.26;11.96
61906;BME280;47863;55.766;37.672;2024-03-22T10:45:41;99797.13;;;26.72;12.27
61906;BME280;47863;55.766;37.672;2024-03-22T10:48:11;99809.91;;;27.14;12.14
61906;BME280;47863;55.766;37.672;2024-03-22T10:50:39;99780.03;;;27.64;12.11
61906;BME280;47863;55.766;37.672;2024-03-22T10:53:13;99829.84;;;28.39;12.03
61906;BME280;47863;55.766;37.672;2024-03-22T10:55:45;99813.38;;;28.03;11.94
61906;BME280;47863;55.766;37.672;2024-03-22T10:58:17;99815.53;;;27.70;12.00
61906;BME280;47863;55.766;37.672;2024-03-22T11:00:44;99803.97;;;27.48;12.21
61906;BME280;47863;55.766;37.672;2024-03-22T11:03:10;99806.06;;;27.20;12.21
61906;BME280;47863;55.766;37.672;2024-03-22T11:05:49;99782.63;;;26.92;12.39
61906;BME280;47863;55.766;37.672;2024-03-22T11:08:28;99767.44;;;26.79;12.22
61906;BME280;47863;55.766;37.672;2024-03-22T11:10:56;99784.03;;;27.05;12.18
61906;BME280;47863;55.766;37.672;2024-03-22T11:13:22;99788.72;;;27.09;12.10
61906;BME280;47863;55.766;37.672;2024-03-22T11:15:51;99784.81;;;26.95;12.16
61906;BME280;47863;55.766;37.672;2024-03-22T11:18:18;99789.59;;;26.57;12.25
61906;BME280;47863;55.766;37.672;2024-03-22T11:20:44;99783.06;;;26.21;12.35
61906;BME280;47863;55.766;37.672;2024-03-22T11:23:14;99781.00;;;26.01;12.73
61906;BME280;47863;55.766;37.672;2024-03-22T11:25:40;99771.31;;;25.61;12.53
61906;BME280;47863;55.766;37.672;2024-03-22T11:28:06;99773.69;;;25.79;12.88
61906;BME280;47863;55.766;37.672;2024-03-22T11:30:33;99758.47;;;25.99;12.53
61906;BME280;47863;55.766;37.672;2024-03-22T11:33:02;99727.97;;;25.58;12.72
61906;BME280;47863;55.766;37.672;2024-03-22T11:35:29;99767.91;;;25.81;12.99
61906;BME280;47863;55.766;37.672;2024-03-22T11:37:55;99718.13;;;25.29;12.92
61906;BME280;47863;55.766;37.672;2024-03-22T11:40:22;99751.63;;;25.69;13.12
61906;BME280;47863;55.766;37.672;2024-03-22T11:42:50;99728.13;;;25.78;12.91
61906;BME280;47863;55.766;37.672;2024-03-22T11:45:17;99743.00;;;25.50;13.10
61906;BME280;47863;55.766;37.672;2024-03-22T11:47:45;99708.59;;;24.83;13.63
61906;BME280;47863;55.766;37.672;2024-03-22T11:50:12;99734.25;;;24.99;13.34
61906;BME280;47863;55.766;37.672;2024-03-22T11:52:41;99722.78;;;24.80;13.85
61906;BME280;47863;55.766;37.672;2024-03-22T11:55:06;99718.16;;;25.07;13.73
61906;BME280;47863;55.766;37.672;2024-03-22T11:57:32;99700.28;;;25.27;13.46
61906;BME280;47863;55.766;37.672;2024-03-22T11:59:59;99706.06;;;25.03;13.53
61906;BME280;47863;55.766;37.672;2024-03-22T12:02:26;99703.66;;;24.41;13.90
61906;BME280;47863;55.766;37.672;2024-03-22T12:04:51;99700.59;;;24.15;14.42
61906;BME280;47863;55.766;37.672;2024-03-22T12:07:17;99647.72;;;23.53;14.32
61906;BME280;47863;55.766;37.672;2024-03-22T12:09:46;99694.84;;;23.61;14.25
61906;BME280;47863;55.766;37.672;2024-03-22T12:12:12;99640.34;;;23.37;14.44
61906;BME280;47863;55.766;37.672;2024-03-22T12:14:39;99675.97;;;23.42;14.64
61906;BME280;47863;55.766;37.672;2024-03-22T12:17:05;99677.03;;;23.41;14.48
61906;BME280;47863;55.766;37.672;2024-03-22T12:19:31;99656.03;;;22.96;15.03
61906;BME280;47863;55.766;37.672;2024-03-22T12:21:57;99652.94;;;22.75;15.07
61906;BME280;47863;55.766;37.672;2024-03-22T12:24:23;99644.50;;;22.48;15.30
61906;BME280;47863;55.766;37.672;2024-03-22T12:26:49;99650.59;;;22.27;15.36
61906;BME280;47863;55.766;37.672;2024-03-22T12:29:16;99646.31;;;22.31;15.35
61906;BME280;47863;55.766;37.672;2024-03-22T12:31:42;99635.13;;;22.44;15.34
61906;BME280;47863;55.766;37.672;2024-03-22T12:34:08;99621.38;;;22.68;15.33
61906;BME280;47863;55.766;37.672;2024-03-22T12:36:34;99463.28;;;21.75;15.21
61906;BME280;47863;55.766;37.672;2024-03-22T12:39:00;99600.44;;;22.16;15.48
61906;BME280;47863;55.766;37.672;2024-03-22T12:41:27;99618.03;;;21.96;16.08